Time;durP1;ratioP1;P1;durP2;ratioP2;P2;SDS_P1;SDS_P2;PMS_P1;PMS_P2;Temp;Humidity;BMP_temperature;BMP_pressure;BME280_temperature;BME280_humidity;BME280_pressure;Samples;Min_cycle;Max_cycle;Signal;HPM_P1;HPM_P2
2022/12/06 00:01:21;;;;;;;0.00;0.00;;;;;;;9.03;74.01;102267.41;7351818;19;20014;-55
2022/12/06 00:03:52;;;;;;;0.00;0.00;;;;;;;9.02;74.22;102266.53;7351576;19;20082;-56
2022/12/06 00:06:19;;;;;;;0.05;0.05;;;;;;;9.00;74.09;102263.03;7353150;19;20006;-57
2022/12/06 00:08:46;;;;;;;0.00;0.00;;;;;;;8.99;73.75;102258.66;7355244;19;20757;-56
2022/12/06 00:11:16;;;;;;;0.00;0.00;;;;;;;8.98;74.10;102256.94;7357855;19;20010;-53
2022/12/06 00:13:42;;;;;;;0.00;0.00;;;;;;;8.96;73.61;102263.84;7357966;19;20011;-55
2022/12/06 00:16:13;;;;;;;0.10;0.10;;;;;;;8.93;73.85;102256.03;7356063;19;20023;-56
2022/12/06 00:18:39;;;;;;;0.00;0.00;;;;;;;8.93;73.94;102271.66;7357426;19;20071;-56
2022/12/06 00:21:13;;;;;;;0.03;0.03;;;;;;;8.92;73.98;102269.91;7356619;19;20021;-56
2022/12/06 00:23:40;;;;;;;0.00;0.00;;;;;;;8.89;73.60;102264.66;7350823;19;20036;-55
2022/12/06 00:26:07;;;;;;;0.10;0.10;;;;;;;8.88;74.02;102265.53;7355263;19;20038;-54
2022/12/06 00:28:34;;;;;;;0.00;0.00;;;;;;;8.84;74.11;102261.13;7364343;19;20006;-56
2022/12/06 00:31:01;;;;;;;0.00;0.00;;;;;;;8.85;73.79;102262.88;7363504;19;20018;-56
2022/12/06 00:33:28;;;;;;;0.08;0.08;;;;;;;8.84;73.89;102258.53;7363812;19;20042;-54
2022/12/06 00:36:00;;;;;;;0.10;0.10;;;;;;;8.87;74.24;102257.66;7364009;19;20011;-56
2022/12/06 00:38:27;;;;;;;0.10;0.10;;;;;;;8.83;74.30;102254.19;7355249;19;20102;-54
2022/12/06 00:41:20;;;;;;;0.00;0.00;;;;;;;8.78;73.92;102240.25;7361659;19;20988;-55
2022/12/06 00:43:46;;;;;;;0.00;0.00;;;;;;;8.80;74.28;102254.16;7363959;19;20011;-55
2022/12/06 00:46:16;;;;;;;0.00;0.00;;;;;;;8.80;74.08;102248.94;7361546;19;21396;-56
2022/12/06 00:48:42;;;;;;;0.00;0.00;;;;;;;8.75;74.23;102250.63;7362283;19;20013;-54
2022/12/06 00:51:07;;;;;;;0.00;0.00;;;;;;;8.71;74.49;102257.53;7364412;19;20031;-56
2022/12/06 00:53:33;;;;;;;0.03;0.03;;;;;;;8.68;74.07;102259.25;7361580;19;20019;-54
2022/12/06 00:55:58;;;;;;;0.00;0.00;;;;;;;8.56;74.10;102239.16;7364786;19;22787;-56
2022/12/06 00:58:24;;;;;;;0.00;0.00;;;;;;;8.48;74.16;102244.28;7358162;19;20010;-56
2022/12/06 01:00:50;;;;;;;0.00;0.00;;;;;;;8.52;74.09;102250.41;7363714;19;20121;-55
2022/12/06 01:03:16;;;;;;;0.10;0.10;;;;;;;8.46;74.20;102253.78;7362766;19;20084;-50
2022/12/06 01:05:50;;;;;;;0.00;0.00;;;;;;;8.44;74.05;102252.03;7364558;19;20014;-57
2022/12/06 01:08:17;;;;;;;0.10;0.10;;;;;;;8.37;74.68;102245.03;7359252;19;20017;-56
2022/12/06 01:10:50;;;;;;;0.00;0.00;;;;;;;8.33;74.22;102252.75;7363251;19;20017;-54
2022/12/06 01:13:16;;;;;;;0.00;0.00;;;;;;;8.27;74.83;102249.22;7363727;19;20583;-56
2022/12/06 01:15:41;;;;;;;0.00;0.00;;;;;;;8.13;75.12;102237.78;7362272;19;20007;-56
2022/12/06 01:18:07;;;;;;;0.00;0.00;;;;;;;8.18;75.34;102246.50;7363355;19;20014;-53
2022/12/06 01:20:33;;;;;;;0.00;0.00;;;;;;;8.15;75.48;102251.66;7359144;19;20021;-57
2022/12/06 01:22:58;;;;;;;0.10;0.10;;;;;;;7.96;75.01;102224.56;7361178;19;20007;-55
2022/12/06 01:25:23;;;;;;;0.00;0.00;;;;;;;8.06;75.31;102250.72;7360684;19;20014;-54
2022/12/06 01:27:49;;;;;;;0.00;0.00;;;;;;;7.90;75.66;102234.88;7362070;19;20002;-56
2022/12/06 01:30:14;;;;;;;0.00;0.00;;;;;;;8.04;75.83;102259.34;7360090;19;20358;-55
2022/12/06 01:32:40;;;;;;;0.00;0.00;;;;;;;8.01;75.91;102255.00;7361051;19;19999;-54
2022/12/06 01:35:05;;;;;;;0.00;0.00;;;;;;;7.86;76.00;102228.78;7362721;19;20010;-55
2022/12/06 01:37:31;;;;;;;0.03;0.03;;;;;;;8.02;75.83;102255.88;7360108;19;20018;-56
2022/12/06 01:39:56;;;;;;;0.10;0.10;;;;;;;8.03;75.66;102263.69;7362796;19;20651;-56
2022/12/06 01:42:22;;;;;;;0.00;0.00;;;;;;;8.05;75.94;102256.75;7358900;19;20023;-56
2022/12/06 01:44:52;;;;;;;0.00;0.00;;;;;;;8.10;75.81;102263.75;7359431;19;20027;-55
2022/12/06 01:47:25;;;;;;;0.00;0.00;;;;;;;8.10;75.73;102253.34;7358938;19;20518;-54
2022/12/06 01:50:03;;;;;;;0.10;0.10;;;;;;;8.13;75.71;102253.38;7361055;19;20014;-54
2022/12/06 01:52:30;;;;;;;;;;;;;;;8.16;75.02;102253.41;7362657;19;20010;-55
2022/12/06 01:54:57;;;;;;;;;;;;;;;8.17;74.81;102249.97;7362602;19;19930;-56
2022/12/06 01:57:23;;;;;;;0.10;0.10;;;;;;;8.11;75.02;102244.69;7359525;19;19982;-55
2022/12/06 01:59:48;;;;;;;0.00;0.00;;;;;;;8.11;75.53;102249.88;7359607;19;20480;-56
2022/12/06 02:02:14;;;;;;;0.05;0.05;;;;;;;8.00;75.42;102236.75;7362314;19;20018;-54
2022/12/06 02:04:40;;;;;;;0.00;0.00;;;;;;;8.05;75.88;102251.56;7357006;19;20564;-54
2022/12/06 02:07:07;;;;;;;0.00;0.00;;;;;;;8.03;75.50;102242.88;7361625;19;20017;-56
2022/12/06 02:09:34;;;;;;;0.00;0.00;;;;;;;7.93;75.92;102222.78;7360064;19;20575;-56
2022/12/06 02:11:59;;;;;;;0.00;0.00;;;;;;;8.02;75.98;102241.13;7358461;19;20035;-56
2022/12/06 02:14:29;;;;;;;0.00;0.00;;;;;;;8.03;75.80;102247.19;7361112;19;20027;-56
2022/12/06 02:17:10;;;;;;;0.05;0.05;;;;;;;8.01;75.48;102239.38;7361920;19;20022;-54
2022/12/06 02:20:03;;;;;;;0.00;0.00;;;;;;;8.04;75.96;102243.75;7358682;19;20744;-55
2022/12/06 02:22:29;;;;;;;0.05;0.05;;;;;;;8.01;75.81;102243.72;7257710;19;2004347;-56
2022/12/06 02:25:09;;;;;;;0.10;0.10;;;;;;;8.02;75.80;102238.53;7358063;19;20089;-54
2022/12/06 02:28:03;;;;;;;0.00;0.00;;;;;;;8.06;75.67;102237.72;7361848;19;20026;-56
2022/12/06 02:30:38;;;;;;;0.05;0.05;;;;;;;8.08;76.08;102235.13;7260131;19;2004417;-55
2022/12/06 02:33:21;;;;;;;0.00;0.00;;;;;;;8.09;75.58;102236.00;7360521;19;20014;-56
2022/12/06 02:35:54;;;;;;;0.00;0.00;;;;;;;8.02;76.10;102220.31;7362878;19;20014;-55
2022/12/06 02:38:33;;;;;;;0.00;0.00;;;;;;;8.11;75.63;102231.66;7358502;19;20802;-54
2022/12/06 02:41:05;;;;;;;0.00;0.00;;;;;;;8.10;75.89;102228.19;7363143;19;20014;-56
2022/12/06 02:43:39;;;;;;;0.00;0.00;;;;;;;8.09;75.48;102217.78;7348419;19;20816;-55
2022/12/06 02:46:06;;;;;;;0.00;0.00;;;;;;;7.99;75.84;102207.25;7364753;19;20010;-53
2022/12/06 02:48:33;;;;;;;0.00;0.00;;;;;;;8.12;75.35;102225.63;7359176;19;20018;-53
2022/12/06 02:51:04;;;;;;;0.00;0.00;;;;;;;8.10;75.40;102214.31;7361635;19;20041;-55
2022/12/06 02:53:33;;;;;;;0.00;0.00;;;;;;;8.14;75.47;102229.13;7361088;19;20013;-56
2022/12/06 02:55:59;;;;;;;0.00;0.00;;;;;;;8.11;75.70;102218.66;7361111;19;20114;-54
2022/12/06 02:58:24;;;;;;;0.00;0.00;;;;;;;8.12;75.49;102230.84;7354712;19;20086;-54
2022/12/06 03:00:58;;;;;;;0.00;0.00;;;;;;;8.12;75.14;102220.44;7361111;19;20066;-53
2022/12/06 03:03:29;;;;;;;0.00;0.00;;;;;;;8.08;75.52;102219.50;7359537;19;20070;-55
2022/12/06 03:06:01;;;;;;;0.00;0.00;;;;;;;8.06;75.33;102211.69;7361020;19;20014;-56
2022/12/06 03:09:05;;;;;;;0.00;0.00;;;;;;;8.03;74.85;102211.66;7361330;19;20003;-55
2022/12/06 03:11:50;;;;;;;0.00;0.00;;;;;;;7.99;75.18;102215.06;7252275;19;2004289;-55
2022/12/06 03:14:24;;;;;;;0.00;0.00;;;;;;;7.76;75.32;102182.72;7359485;19;20003;-54
2022/12/06 03:17:15;;;;;;;0.00;0.00;;;;;;;7.92;75.27;102214.97;7362322;19;20009;-57
2022/12/06 03:19:41;;;;;;;0.00;0.00;;;;;;;7.83;75.65;102207.06;7255161;19;2004525;-56
2022/12/06 03:22:34;;;;;;;0.00;0.00;;;;;;;7.76;75.30;102190.50;7360496;19;21575;-56
2022/12/06 03:25:01;;;;;;;0.00;0.00;;;;;;;7.80;75.79;102193.13;7259590;19;2004360;-54
2022/12/06 03:27:29;;;;;;;0.00;0.00;;;;;;;7.84;75.90;102198.41;7361519;19;20460;-54
2022/12/06 03:29:59;;;;;;;0.10;0.10;;;;;;;7.87;75.60;102204.53;7359542;19;20106;-56
2022/12/06 03:32:29;;;;;;;0.00;0.00;;;;;;;7.87;75.13;102196.72;7360928;19;20016;-55
2022/12/06 03:34:57;;;;;;;0.00;0.00;;;;;;;7.88;75.23;102205.38;7357570;19;20729;-55
2022/12/06 03:37:26;;;;;;;0.00;0.00;;;;;;;7.87;75.52;102199.31;7358860;19;20034;-55
2022/12/06 03:40:00;;;;;;;0.00;0.00;;;;;;;7.87;75.40;102204.53;7358967;19;20017;-56
2022/12/06 03:42:26;;;;;;;0.00;0.00;;;;;;;7.74;75.42;102181.81;7359943;19;20034;-55
2022/12/06 03:44:52;;;;;;;0.00;0.00;;;;;;;7.72;75.31;102179.19;7359687;19;20378;-55
2022/12/06 03:47:56;;;;;;;0.00;0.00;;;;;;;7.80;75.01;102189.66;7361283;19;20035;-57
2022/12/06 03:50:49;;;;;;;0.10;0.10;;;;;;;7.82;75.13;102201.00;7253354;19;2004317;-56
2022/12/06 03:53:19;;;;;;;0.00;0.00;;;;;;;7.79;75.33;102200.94;7255640;19;2004436;-56
2022/12/06 03:55:44;;;;;;;0.00;0.00;;;;;;;7.72;75.26;102201.72;7360359;19;20039;-55
2022/12/06 03:58:11;;;;;;;0.00;0.00;;;;;;;7.63;75.64;102186.00;7355770;19;20011;-55
2022/12/06 04:00:36;;;;;;;0.00;0.00;;;;;;;7.57;75.38;102183.31;7357931;19;20014;-55
2022/12/06 04:03:02;;;;;;;0.00;0.00;;;;;;;7.66;75.71;102209.44;7347414;19;20007;-57
2022/12/06 04:05:27;;;;;;;0.00;0.00;;;;;;;7.65;75.55;102218.94;7351589;19;20411;-54
2022/12/06 04:07:52;;;;;;;0.00;0.00;;;;;;;7.60;75.57;102220.59;7359886;19;20339;-55
2022/12/06 04:10:18;;;;;;;0.00;0.00;;;;;;;7.57;75.71;102215.38;7356665;19;21138;-55
2022/12/06 04:13:01;;;;;;;0.00;0.00;;;;;;;7.58;76.01;102224.94;7358413;19;20019;-55
2022/12/06 04:15:30;;;;;;;0.10;0.10;;;;;;;7.57;75.82;102224.91;7358693;19;20006;-55
2022/12/06 04:18:09;;;;;;;0.00;0.00;;;;;;;7.56;76.38;102223.16;7354639;19;20006;-56
2022/12/06 04:23:25;;;;;;;0.00;0.00;;;;;;;7.47;75.82;102209.19;7358092;19;20034;-56
2022/12/06 04:25:50;;;;;;;0.00;0.00;;;;;;;7.38;75.80;102193.44;7356601;19;21196;-55
2022/12/06 04:39:12;;;;;;;0.00;0.00;;;;;;;7.58;75.65;102200.66;7358310;19;20028;-56
2022/12/06 04:44:22;;;;;;;0.00;0.00;;;;;;;7.14;75.59;102115.16;7356092;19;20012;-56
2022/12/06 04:46:47;;;;;;;0.00;0.00;;;;;;;7.69;75.84;102210.34;7364280;19;20387;-55
2022/12/06 04:49:13;;;;;;;0.00;0.00;;;;;;;7.63;75.94;102183.41;7365840;19;20006;-54
2022/12/06 04:51:38;;;;;;;0.00;0.00;;;;;;;7.63;75.67;102175.59;7366607;19;20074;-56
2022/12/06 04:54:04;;;;;;;0.10;0.10;;;;;;;7.73;75.44;102193.06;7365060;19;20021;-57
2022/12/06 04:56:30;;;;;;;0.00;0.00;;;;;;;7.77;75.81;102202.66;7367407;19;20018;-54
2022/12/06 04:58:56;;;;;;;0.00;0.00;;;;;;;7.77;75.84;102192.25;7365745;19;20022;-56
2022/12/06 05:01:21;;;;;;;0.00;0.00;;;;;;;7.74;75.74;102187.88;7360289;19;21095;-54
2022/12/06 05:03:46;;;;;;;0.00;0.00;;;;;;;7.84;75.57;102195.78;7363856;19;20713;-54
2022/12/06 05:06:12;;;;;;;0.00;0.00;;;;;;;7.51;75.73;102138.19;7364053;19;20007;-53
2022/12/06 05:08:37;;;;;;;0.00;0.00;;;;;;;7.87;75.39;102193.25;7366745;19;20025;-56
2022/12/06 05:11:03;;;;;;;0.10;0.10;;;;;;;7.83;75.44;102187.13;7363007;19;20021;-55
2022/12/06 05:13:28;;;;;;;0.00;0.00;;;;;;;7.90;75.58;102199.34;7364108;19;20081;-56
2022/12/06 05:15:56;;;;;;;0.03;0.03;;;;;;;7.95;75.55;102199.41;7365710;19;20011;-56
2022/12/06 05:18:23;;;;;;;0.10;0.10;;;;;;;7.95;75.52;102197.66;7363468;19;20007;-54
2022/12/06 05:20:48;;;;;;;0.00;0.00;;;;;;;7.96;75.35;102198.56;7364007;19;20465;-55
2022/12/06 05:23:14;;;;;;;0.10;0.10;;;;;;;7.99;75.39;102203.78;7365019;19;20031;-54
2022/12/06 05:25:39;;;;;;;0.00;0.00;;;;;;;8.01;75.28;102196.88;7365711;19;20109;-54
2022/12/06 05:28:05;;;;;;;0.03;0.03;;;;;;;7.98;75.66;102196.84;7364799;19;20086;-55
2022/12/06 05:30:30;;;;;;;0.00;0.00;;;;;;;8.00;75.55;102198.59;7365795;19;20038;-55
2022/12/06 05:32:56;;;;;;;0.00;0.00;;;;;;;8.04;75.30;102202.09;7363308;19;20035;-53
2022/12/06 05:35:21;;;;;;;0.00;0.00;;;;;;;7.98;75.17;102182.09;7364515;19;20125;-56
2022/12/06 05:37:46;;;;;;;0.00;0.00;;;;;;;7.96;75.13;102170.81;7365584;19;20003;-53
2022/12/06 05:40:12;;;;;;;0.00;0.00;;;;;;;8.02;75.14;102183.91;7358770;19;20477;-56
2022/12/06 05:42:39;;;;;;;0.00;0.00;;;;;;;8.10;75.36;102196.97;7362817;19;20622;-55
2022/12/06 05:45:06;;;;;;;0.00;0.00;;;;;;;8.10;75.60;102185.69;7363219;19;20051;-54
2022/12/06 05:47:31;;;;;;;0.00;0.00;;;;;;;8.10;75.36;102190.91;7363338;19;20663;-54
2022/12/06 05:49:57;;;;;;;0.00;0.00;;;;;;;8.12;75.43;102184.88;7360195;19;20007;-56
2022/12/06 05:52:22;;;;;;;0.00;0.00;;;;;;;7.99;75.32;102168.22;7365984;19;20022;-56
2022/12/06 05:54:48;;;;;;;0.00;0.00;;;;;;;8.13;75.59;102185.75;7362920;19;20029;-54
2022/12/06 05:57:13;;;;;;;0.00;0.00;;;;;;;7.93;75.23;102146.50;7363153;19;20025;-56
2022/12/06 05:59:39;;;;;;;0.08;0.08;;;;;;;8.02;75.54;102157.00;7358743;19;20015;-55
2022/12/06 06:02:04;;;;;;;0.00;0.00;;;;;;;8.01;75.15;102156.13;7364738;19;20110;-54
2022/12/06 06:04:29;;;;;;;0.08;0.08;;;;;;;7.96;75.29;102147.41;7359414;19;20007;-56
2022/12/06 06:06:55;;;;;;;0.10;0.10;;;;;;;8.09;75.48;102169.22;7363715;19;20027;-57
2022/12/06 06:09:20;;;;;;;0.00;0.00;;;;;;;8.15;75.64;102178.81;7361097;19;20016;-55
2022/12/06 06:11:46;;;;;;;0.10;0.10;;;;;;;8.16;75.34;102180.56;7362046;19;20031;-56
2022/12/06 06:14:11;;;;;;;0.00;0.00;;;;;;;8.16;75.43;102186.66;7361895;19;20112;-57
2022/12/06 06:16:36;;;;;;;0.00;0.00;;;;;;;8.03;75.42;102159.63;7363173;19;20094;-56
2022/12/06 06:19:02;;;;;;;0.10;0.10;;;;;;;8.12;74.93;102173.59;7362247;19;20018;-54
2022/12/06 06:21:27;;;;;;;0.00;0.00;;;;;;;8.06;75.46;102175.28;7362901;19;20014;-54
2022/12/06 06:23:56;;;;;;;0.00;0.00;;;;;;;8.20;74.99;102192.75;7364134;19;20019;-54
2022/12/06 06:26:21;;;;;;;0.00;0.00;;;;;;;8.18;75.11;102202.28;7359769;19;20031;-55
2022/12/06 06:28:46;;;;;;;0.10;0.10;;;;;;;8.09;75.06;102173.53;7364274;19;20021;-56
2022/12/06 06:31:12;;;;;;;0.00;0.00;;;;;;;8.19;75.13;102196.22;7363492;19;20038;-54
2022/12/06 06:33:37;;;;;;;0.00;0.00;;;;;;;8.17;75.06;102192.72;7362876;19;20011;-56
2022/12/06 06:36:03;;;;;;;0.03;0.03;;;;;;;8.21;75.13;102200.59;7361913;19;20737;-55
2022/12/06 06:38:29;;;;;;;0.00;0.00;;;;;;;8.15;75.08;102192.69;7362020;19;20010;-56
2022/12/06 06:40:54;;;;;;;0.00;0.00;;;;;;;8.05;75.29;102168.28;7362082;19;20023;-57
2022/12/06 06:43:19;;;;;;;0.10;0.10;;;;;;;8.11;75.12;102187.44;7358169;19;20006;-56
2022/12/06 06:45:58;;;;;;;0.00;0.00;;;;;;;8.24;75.41;102200.59;7364011;19;20010;-55
2022/12/06 06:48:25;;;;;;;0.05;0.05;;;;;;;8.20;75.37;102193.63;7362697;19;20022;-56
2022/12/06 06:50:50;;;;;;;0.00;0.00;;;;;;;8.09;75.09;102169.22;7359848;19;20470;-55
2022/12/06 06:53:16;;;;;;;0.00;0.00;;;;;;;8.23;75.31;102203.19;7362091;19;20043;-56
2022/12/06 06:55:43;;;;;;;0.05;0.05;;;;;;;8.06;75.12;102175.28;7361323;19;20030;-55
2022/12/06 06:58:08;;;;;;;0.00;0.00;;;;;;;8.21;75.47;102199.69;7353554;19;20689;-53
2022/12/06 07:00:34;;;;;;;0.00;0.00;;;;;;;8.13;75.04;102186.59;7361261;19;20014;-56
2022/12/06 07:03:00;;;;;;;0.00;0.00;;;;;;;8.24;75.26;102199.75;7361601;19;20019;-55
2022/12/06 07:05:26;;;;;;;0.00;0.00;;;;;;;8.21;75.03;102194.47;7357023;19;20724;-56
2022/12/06 07:07:51;;;;;;;0.00;0.00;;;;;;;8.15;75.14;102189.22;7361022;19;20013;-55
2022/12/06 07:10:20;;;;;;;0.10;0.10;;;;;;;8.25;75.01;102202.34;7358917;19;20042;-56
2022/12/06 07:12:45;;;;;;;0.00;0.00;;;;;;;8.24;75.43;102211.00;7354117;19;20011;-57
2022/12/06 07:15:11;;;;;;;0.00;0.00;;;;;;;8.22;75.20;102202.34;7357939;19;20373;-56
2022/12/06 07:17:36;;;;;;;0.00;0.00;;;;;;;8.23;75.41;102204.06;7361716;19;20011;-55
2022/12/06 07:20:02;;;;;;;0.08;0.08;;;;;;;8.25;75.40;102214.50;7357007;19;20056;-56
2022/12/06 07:22:28;;;;;;;0.00;0.00;;;;;;;8.26;75.52;102218.81;7361704;19;20025;-55
2022/12/06 07:24:54;;;;;;;0.00;0.00;;;;;;;8.05;75.44;102172.63;7360291;19;20659;-54
2022/12/06 07:27:19;;;;;;;0.00;0.00;;;;;;;8.19;75.22;102196.22;7360306;19;21272;-54
2022/12/06 07:29:44;;;;;;;0.00;0.00;;;;;;;8.13;75.12;102201.34;7360387;19;20014;-54
2022/12/06 07:32:10;;;;;;;0.00;0.00;;;;;;;8.24;74.99;102210.16;7360634;19;20469;-55
2022/12/06 07:34:35;;;;;;;0.10;0.10;;;;;;;8.23;75.15;102198.00;7356858;19;20030;-53
2022/12/06 07:37:01;;;;;;;0.00;0.00;;;;;;;8.12;74.96;102181.41;7360424;19;20014;-54
2022/12/06 07:39:26;;;;;;;0.10;0.10;;;;;;;8.22;75.01;102206.66;7362148;19;20815;-56
2022/12/06 07:47:19;;;;;;;0.00;0.00;;;;;;;8.09;75.04;102184.81;7342492;19;20025;-54
2022/12/06 07:49:45;;;;;;;0.00;0.00;;;;;;;8.10;74.79;102196.09;7355211;19;20014;-54
2022/12/06 07:52:10;;;;;;;0.00;0.00;;;;;;;8.06;75.23;102196.09;7359607;19;20038;-55
2022/12/06 07:54:35;;;;;;;0.00;0.00;;;;;;;8.03;75.15;102203.84;7361166;19;20018;-53
2022/12/06 07:57:01;;;;;;;0.10;0.10;;;;;;;7.98;75.07;102195.09;7361307;19;20015;-55
2022/12/06 07:59:26;;;;;;;0.00;0.00;;;;;;;7.88;75.42;102185.44;7359285;19;20014;-55
2022/12/06 08:01:53;;;;;;;0.00;0.00;;;;;;;7.96;75.63;102198.56;7359121;19;20023;-53
2022/12/06 08:04:18;;;;;;;0.00;0.00;;;;;;;7.78;75.57;102165.38;7357209;19;20010;-54
2022/12/06 08:06:44;;;;;;;0.00;0.00;;;;;;;7.93;75.77;102195.91;7356949;19;20829;-54
2022/12/06 08:09:10;;;;;;;0.10;0.10;;;;;;;7.93;75.79;102188.97;7355080;19;20002;-56
2022/12/06 08:11:37;;;;;;;0.00;0.00;;;;;;;7.93;75.61;102188.97;7358623;19;20514;-55
2022/12/06 08:14:03;;;;;;;0.08;0.08;;;;;;;7.93;75.89;102199.38;7357283;19;20013;-54
2022/12/06 08:16:29;;;;;;;0.00;0.00;;;;;;;7.92;75.90;102191.56;7359308;19;20014;-53
2022/12/06 08:18:55;;;;;;;0.10;0.10;;;;;;;7.94;75.53;102201.13;7350016;19;20021;-56
2022/12/06 08:21:20;;;;;;;0.00;0.00;;;;;;;7.95;75.74;102202.88;7361689;19;20124;-57
2022/12/06 08:23:46;;;;;;;0.00;0.00;;;;;;;7.89;75.58;102197.59;7368522;19;20010;-56
2022/12/06 08:26:14;;;;;;;0.10;0.10;;;;;;;7.93;75.49;102209.78;7366761;19;20011;-56
2022/12/06 08:28:42;;;;;;;0.00;0.00;;;;;;;7.94;75.53;102221.94;7366125;19;20002;-52
2022/12/06 08:31:19;;;;;;;0.03;0.03;;;;;;;7.64;75.26;102159.13;7363715;19;20010;-55
2022/12/06 08:33:45;;;;;;;0.10;0.10;;;;;;;7.95;75.33;102218.47;7365917;19;20122;-54
2022/12/06 08:36:13;;;;;;;0.00;0.00;;;;;;;7.96;75.36;102222.84;7364951;19;20549;-56
2022/12/06 08:38:39;;;;;;;0.00;0.00;;;;;;;7.93;75.54;102219.31;7364851;19;20576;-55
2022/12/06 08:41:54;;;;;;;0.08;0.08;;;;;;;7.86;75.37;102207.09;7355460;19;20707;-55
2022/12/06 08:43:52;;;;;;;0.00;0.00;;;;;;;7.74;75.52;102198.28;7364490;19;20458;-56
2022/12/06 08:46:18;;;;;;;0.00;0.00;;;;;;;7.86;75.70;102220.13;7365654;19;20065;-54
2022/12/06 08:48:43;;;;;;;0.10;0.10;;;;;;;7.80;75.88;102213.94;7364413;19;20006;-56
2022/12/06 08:51:08;;;;;;;0.00;0.00;;;;;;;7.79;75.59;102217.41;7367319;19;20366;-53
2022/12/06 08:53:34;;;;;;;0.05;0.05;;;;;;;7.76;75.89;102225.19;7358205;19;20024;-56
2022/12/06 08:55:59;;;;;;;0.10;0.10;;;;;;;7.71;75.91;102218.19;7359994;19;20010;-56
2022/12/06 08:58:24;;;;;;;0.05;0.05;;;;;;;7.71;75.58;102220.78;7363349;19;20747;-54
2022/12/06 09:00:50;;;;;;;0.00;0.00;;;;;;;7.57;75.51;102206.72;7361850;19;20018;-55
2022/12/06 09:03:15;;;;;;;0.10;0.10;;;;;;;7.64;76.11;102221.53;7360412;19;20033;-53
2022/12/06 09:05:41;;;;;;;0.00;0.00;;;;;;;7.63;75.92;102238.00;7358749;19;20626;-56
2022/12/06 09:08:06;;;;;;;0.00;0.00;;;;;;;7.57;76.06;102227.50;7356656;19;20014;-56
2022/12/06 09:10:31;;;;;;;0.00;0.00;;;;;;;7.46;76.02;102212.63;7360608;19;20039;-55
2022/12/06 09:12:57;;;;;;;0.00;0.00;;;;;;;7.61;76.12;102234.50;7360112;19;20748;-53
2022/12/06 09:15:22;;;;;;;0.00;0.00;;;;;;;7.50;76.09;102217.03;7363375;19;20826;-56
2022/12/06 09:17:48;;;;;;;0.00;0.00;;;;;;;7.62;76.09;102239.72;7362843;19;21409;-55
2022/12/06 09:20:16;;;;;;;0.08;0.08;;;;;;;7.62;76.04;102234.53;7362909;19;20322;-54
2022/12/06 09:22:43;;;;;;;0.10;0.10;;;;;;;7.53;75.90;102230.06;7360494;19;20014;-55
2022/12/06 09:25:08;;;;;;;0.00;0.00;;;;;;;7.65;76.27;102241.47;7361685;19;20041;-55
2022/12/06 09:27:34;;;;;;;0.00;0.00;;;;;;;7.61;76.00;102231.91;7359449;19;20473;-55
2022/12/06 09:29:59;;;;;;;0.08;0.08;;;;;;;7.56;76.18;102225.78;7359932;19;20011;-55
2022/12/06 09:32:24;;;;;;;0.00;0.00;;;;;;;7.66;76.42;102236.31;7358531;19;20021;-56
2022/12/06 09:34:50;;;;;;;0.00;0.00;;;;;;;7.72;76.07;102257.19;7362178;19;20039;-55
2022/12/06 09:37:16;;;;;;;0.00;0.00;;;;;;;7.64;75.98;102235.41;7357436;19;20050;-57
2022/12/06 09:39:45;;;;;;;0.00;0.00;;;;;;;7.79;76.10;102258.16;7358971;19;20008;-56
2022/12/06 09:42:23;;;;;;;0.00;0.00;;;;;;;7.82;75.70;102246.94;7362021;19;20006;-55
2022/12/06 09:45:00;;;;;;;0.00;0.00;;;;;;;7.87;75.93;102251.34;7359154;19;20082;-54
2022/12/06 09:47:37;;;;;;;0.00;0.00;;;;;;;7.88;75.67;102247.88;7363495;19;20035;-57
2022/12/06 09:50:35;;;;;;;0.00;0.00;;;;;;;7.91;75.56;102258.34;7363123;19;20043;-55
2022/12/06 09:53:18;;;;;;;0.00;0.00;;;;;;;7.95;75.59;102257.50;7259039;19;2004378;-56
2022/12/06 09:56:10;;;;;;;0.00;0.00;;;;;;;7.97;75.54;102265.34;7347725;19;20011;-55
2022/12/06 09:58:55;;;;;;;0.00;0.00;;;;;;;7.94;75.31;102268.75;7252082;19;2004373;-55
2022/12/06 10:01:36;;;;;;;0.00;0.00;;;;;;;7.97;75.10;102268.81;7353741;19;20774;-54
2022/12/06 10:04:19;;;;;;;0.00;0.00;;;;;;;7.99;75.31;102261.00;7353985;19;20018;-55
2022/12/06 10:06:58;;;;;;;0.10;0.10;;;;;;;7.99;75.27;102267.09;7352086;19;20896;-55
2022/12/06 10:09:45;;;;;;;0.00;0.00;;;;;;;8.00;74.94;102268.81;7352635;19;20854;-56
2022/12/06 10:12:50;;;;;;;0.00;0.00;;;;;;;8.00;74.94;102271.44;7353000;19;20010;-56
2022/12/06 10:15:35;;;;;;;0.00;0.00;;;;;;;7.97;75.44;102263.59;7249319;19;2004883;-52
2022/12/06 10:18:15;;;;;;;0.00;0.00;;;;;;;7.99;75.12;102271.41;7352080;19;20077;-55
2022/12/06 10:20:50;;;;;;;0.00;0.00;;;;;;;8.02;75.31;102293.16;7354154;19;20003;-51
2022/12/06 10:23:34;;;;;;;0.00;0.00;;;;;;;8.02;75.56;102293.16;7356297;19;20007;-56
2022/12/06 10:26:27;;;;;;;0.00;0.00;;;;;;;8.07;75.13;102299.28;7355692;19;20466;-56
2022/12/06 10:29:13;;;;;;;0.00;0.00;;;;;;;8.06;75.29;102276.75;7256971;19;2004320;-56
2022/12/06 10:31:53;;;;;;;0.00;0.00;;;;;;;8.09;75.43;102282.81;7356225;19;20011;-55
2022/12/06 10:34:21;;;;;;;0.10;0.10;;;;;;;8.09;75.39;102290.63;7357993;19;20014;-54
2022/12/06 10:37:12;;;;;;;0.00;0.00;;;;;;;8.17;75.03;102286.41;7356400;19;20010;-56
2022/12/06 10:39:54;;;;;;;0.00;0.00;;;;;;;8.18;74.66;102277.75;7358599;19;20011;-55
2022/12/06 10:42:25;;;;;;;0.00;0.00;;;;;;;8.21;74.80;102282.97;7358399;19;20031;-55
2022/12/06 10:45:01;;;;;;;0.00;0.00;;;;;;;8.12;74.56;102273.34;7354983;19;20087;-54
2022/12/06 10:47:30;;;;;;;0.00;0.00;;;;;;;8.19;74.81;102284.69;7357805;19;20103;-56
2022/12/06 10:50:05;;;;;;;0.00;0.00;;;;;;;8.22;74.44;102287.34;7357051;19;20097;-51
2022/12/06 10:52:33;;;;;;;0.00;0.00;;;;;;;8.23;74.41;102273.47;7356782;19;20069;-53
2022/12/06 10:55:01;;;;;;;0.10;0.10;;;;;;;8.24;74.39;102278.69;7356688;19;20089;-56
2022/12/06 10:57:42;;;;;;;0.10;0.10;;;;;;;8.28;74.54;102277.00;7357353;19;20455;-56
2022/12/06 11:00:19;;;;;;;0.00;0.00;;;;;;;8.21;74.60;102264.75;7354576;19;20017;-53
2022/12/06 11:02:57;;;;;;;0.00;0.00;;;;;;;8.20;74.40;102261.28;7356944;19;20002;-54
2022/12/06 11:05:43;;;;;;;0.00;0.00;;;;;;;8.31;73.97;102271.81;7356904;19;20006;-56
2022/12/06 11:08:15;;;;;;;0.00;0.00;;;;;;;8.29;74.05;102265.72;7355787;19;20014;-56
2022/12/06 11:10:44;;;;;;;0.00;0.00;;;;;;;8.32;73.85;102266.66;7355065;19;20098;-55
2022/12/06 11:13:19;;;;;;;0.00;0.00;;;;;;;8.39;74.33;102271.94;7355401;19;20095;-56
2022/12/06 11:15:55;;;;;;;0.10;0.10;;;;;;;8.39;74.46;102270.22;7356692;19;20014;-55
2022/12/06 11:18:21;;;;;;;0.00;0.00;;;;;;;8.33;74.55;102262.31;7354779;19;20031;-55
2022/12/06 11:20:57;;;;;;;0.00;0.00;;;;;;;8.31;74.14;102248.38;7355597;19;20588;-56
2022/12/06 11:23:44;;;;;;;0.00;0.00;;;;;;;8.46;74.44;102263.34;7356678;19;20800;-56
2022/12/06 11:26:21;;;;;;;0.00;0.00;;;;;;;8.50;74.08;102260.78;7352293;19;20016;-57
2022/12/06 11:29:03;;;;;;;0.00;0.00;;;;;;;8.55;74.19;102264.31;7353788;19;20010;-56
2022/12/06 11:31:51;;;;;;;0.00;0.00;;;;;;;8.65;74.46;102272.22;7352167;19;20022;-54
2022/12/06 11:34:40;;;;;;;0.00;0.00;;;;;;;8.70;74.21;102273.16;7354743;19;20018;-56
2022/12/06 11:37:10;;;;;;;0.00;0.00;;;;;;;8.69;74.16;102271.41;7355773;19;20070;-55
2022/12/06 11:39:38;;;;;;;0.00;0.00;;;;;;;8.73;73.93;102270.59;7355813;19;20781;-56
2022/12/06 11:42:06;;;;;;;0.00;0.00;;;;;;;8.72;73.76;102272.31;7354865;19;20056;-56
2022/12/06 11:44:46;;;;;;;0.00;0.00;;;;;;;8.80;73.65;102269.78;7354938;19;20010;-56
2022/12/06 11:47:18;;;;;;;0.00;0.00;;;;;;;8.81;73.67;102266.31;7356775;19;20840;-56
2022/12/06 11:49:45;;;;;;;0.00;0.00;;;;;;;8.68;73.88;102251.44;7355264;19;20019;-56
2022/12/06 11:52:34;;;;;;;0.00;0.00;;;;;;;8.79;73.72;102265.44;7355866;19;20014;-56
2022/12/06 11:55:14;;;;;;;0.00;0.00;;;;;;;8.78;73.91;102258.47;7355281;19;20090;-54
2022/12/06 11:57:48;;;;;;;0.10;0.10;;;;;;;8.79;74.02;102257.63;7360463;19;20009;-54
2022/12/06 12:00:23;;;;;;;0.00;0.00;;;;;;;8.81;73.52;102266.31;7359432;19;20010;-54
2022/12/06 12:02:51;;;;;;;0.00;0.00;;;;;;;8.79;73.93;102263.69;7361155;19;20128;-55
2022/12/06 12:05:33;;;;;;;0.00;0.00;;;;;;;8.81;74.09;102261.09;7362484;19;20717;-52
2022/12/06 12:08:01;;;;;;;0.08;0.08;;;;;;;8.81;73.95;102261.09;7360806;19;20007;-56
2022/12/06 12:10:30;;;;;;;0.10;0.10;;;;;;;8.82;73.87;102255.06;7362448;19;20019;-55